Bandeira do Sul, Brazil
Current Conditions -  °F | °C
As of 8:00 AM on Thursday 27 Nov 2014 (Local Time) from SBPC Reporting Station
Haze Haze  
Wind Chill: 66°   Ceiling: 600
Heat Index: 66°   Visibility: 0.62mi
Dew Point: 66°   Wind: 0mph
Humidity: 100%   Direction: NA
Pressure: 30.06"   Gusts: NA
Location:  21.73°S, 46.39°W
Report Text: SBPC 271000Z 00000KT 1000 BR OVC006 19/19 Q1018
Loading
Personal Weather Stations






























Interactive Weather Map New forecast layout! Learn more

10-Day Weather Forecast

Advertisements
Track Severe Weather on mobile